• Join FlightAware (Why Join?)
  • Login
  • US Flag 
06:40AM EST


 

Airport Tracker/Info


-or-


 

Live Flight TrackerFlight Track Log ✈ SWA1276 ✈ 23-Apr-2013 ✈ KBNA - KJAX

Flight Track Log - Related Links

Times and Time Zones

All times are in EDT time to prevent confusion due to time zone crossing. See the SWA1276 flight status page for this flight to view local times or setup timezone preferences in your user account.

Time Position Orientation Groundspeed Altitude Reporting Facility
EDT Latitude Longitude Course Direction KTS MPH feet Rate Location/Type
05:38PM 36.0667 -86.6833 180° South 180 207 3,600  Level Nashville TRACON
05:39PM 36.0000 -86.6833 180° South 264 304 8,000 3,540 Climbing Nashville TRACON
05:40PM 35.9075 -86.6639 170° South 290 334 11,600 3,720 Climbing Memphis Center
05:41PM 35.8325 -86.5931 143° Southeast 333 383 15,600 3,720 Climbing Memphis Center
05:42PM 35.7525 -86.5022 137° Southeast 360 414 19,100 3,360 Climbing Memphis Center
05:44PM 35.5075 -86.4164 164° South 399 459 26,900 2,940 Climbing Atlanta Center
05:45PM 35.3911 -86.3953 172° South 418 481 29,000 1,620 Climbing Atlanta Center
05:46PM 35.2900 -86.3442 158° South 423 487 30,200 1,980 Climbing Atlanta Center
05:47PM 35.1844 -86.2853 155° Southeast 423 487 33,000 1,380 Climbing Atlanta Center
05:48PM 35.0814 -86.2267 155° Southeast 418 481 33,000  Level Atlanta Center
05:49PM 34.9806 -86.1453 147° Southeast 418 481 33,000  Level Atlanta Center
05:50PM 34.9008 -86.0394 133° Southeast 431 496 33,000  Level Atlanta Center
05:51PM 34.8192 -85.9314 133° Southeast 431 496 33,000  Level Atlanta Center
05:52PM 34.7350 -85.8233 133° Southeast 431 496 33,000  Level Atlanta Center
05:53PM 34.6511 -85.7206 135° Southeast 431 496 33,000  Level Atlanta Center
05:54PM 34.5669 -85.6153 134° Southeast 431 496 33,000  Level Atlanta Center
05:55PM 34.4847 -85.5081 133° Southeast 431 496 33,000  Level Atlanta Center
05:56PM 34.4025 -85.4033 134° Southeast 431 496 33,000  Level Atlanta Center
05:57PM 34.3200 -85.2964 133° Southeast 431 496 33,000  Level Atlanta Center
05:58PM 34.2356 -85.1919 134° Southeast 431 496 33,000  Level Atlanta Center
05:59PM 34.1508 -85.0856 134° Southeast 431 496 33,000  Level Atlanta Center
06:00PM 34.0661 -84.9792 134° Southeast 436 502 33,000  Level Atlanta Center
06:01PM 33.9833 -84.8781 135° Southeast 429 494 33,000  Level Atlanta Center
06:02PM 33.8986 -84.7747 135° Southeast 434 499 33,000  Level Atlanta Center
06:03PM 33.8072 -84.6564 133° Southeast 434 499 33,000  Level Atlanta Center
06:04PM 33.7325 -84.5708 136° Southeast 429 494 33,000  Level Atlanta Center
06:05PM 33.6392 -84.4531 134° Southeast 435 501 33,000  Level Atlanta Center
06:06PM 33.5539 -84.3728 142° Southeast 440 506 33,000  Level Atlanta Center
06:07PM 33.4539 -84.2903 145° Southeast 429 494 33,000  Level Atlanta Center
06:08PM 33.3558 -84.2081 145° Southeast 434 499 33,000  Level Atlanta Center
06:09PM 33.2600 -84.1233 144° Southeast 434 499 33,000  Level Atlanta Center
06:10PM 33.1514 -84.0364 146° Southeast 434 499 33,000  Level Atlanta Center
06:11PM 33.0533 -83.9522 144° Southeast 434 499 33,000  Level Atlanta Center
06:12PM 32.9675 -83.8828 146° Southeast 434 499 33,000  Level Atlanta Center
06:13PM 32.8694 -83.7964 143° Southeast 434 499 33,000  Level Atlanta Center
06:14PM 32.7711 -83.7203 147° Southeast 434 499 33,000  Level Atlanta Center
06:15PM 32.6747 -83.6342 143° Southeast 429 494 33,000  Level Atlanta Center
06:16PM 32.5825 -83.5408 140° Southeast 429 494 33,000  Level Atlanta Center
06:17PM 32.4903 -83.4503 140° Southeast 435 501 33,000  Level Atlanta Center
06:18PM 32.3917 -83.3500 139° Southeast 435 501 33,000  Level Atlanta Center
06:19PM 32.2994 -83.2600 140° Southeast 429 494 33,000 -1,620 Level Atlanta Center
06:23PM 31.9975 -82.9586 140° Southeast 438 504 25,800 -2,040 Descending Jacksonville Center
06:24PM 31.9119 -82.8756 141° Southeast 417 480 24,000 -900 Descending Jacksonville Center
06:25PM 31.8261 -82.7900 140° Southeast 410 472 24,000  Level Jacksonville Center
06:26PM 31.7406 -82.7044 140° Southeast 405 466 24,000  Level Jacksonville Center
06:27PM 31.6525 -82.6217 141° Southeast 399 459 24,000 -480 Level Jacksonville Center
06:28PM 31.5544 -82.5611 152° Southeast 399 459 23,100 -1,020 Descending Jacksonville Center
06:29PM 31.4519 -82.5006 153° Southeast 404 465 22,000 -1,500 Descending Jacksonville Center
06:30PM 31.3389 -82.4450 157° South 404 465 20,100 -2,100 Descending Jacksonville Center
06:31PM 31.2386 -82.3872 154° Southeast 404 465 17,800 -2,220 Descending Jacksonville Center
06:32PM 31.1464 -82.3319 153° Southeast 393 452 15,700 -2,220 Descending Jacksonville Center
06:33PM 31.0583 -82.2792 153° Southeast 371 427 13,400 -2,400 Descending Jacksonville Center
06:33PM 31.0356 -82.2647 151° Southeast 348 400 12,600 -1,500 Descending Jacksonville Center
06:34PM 30.9725 -82.2311 155° Southeast 354 407 11,900 -600 Descending Jacksonville Center
06:34PM 30.9517 -82.2022 130° Southeast 328 377 12,000  Climbing Jacksonville Center
06:35PM 30.9075 -82.1614 142° Southeast 336 387 11,900 -1,200 Descending Jacksonville Center
06:36PM 30.8467 -82.1014 140° Southeast 310 357 10,000 -1,740 Descending Jacksonville Center
06:36PM 30.8278 -82.0772 132° Southeast 290 334 9,600 -1,920 Descending Jacksonville Center
06:37PM 30.7878 -82.0439 144° Southeast 296 341 8,100 -2,520 Descending Jacksonville Center
06:37PM 30.7708 -82.0222 132° Southeast 282 325 7,300 -2,220 Descending Jacksonville Center
06:38PM 30.7289 -81.9839 142° Southeast 284 327 5,900 -2,100 Descending Jacksonville Center
06:38PM 30.7017 -81.9575 140° Southeast 269 310 4,800 -1,440 Descending Jacksonville Center
06:39PM 30.6764 -81.9289 136° Southeast 278 320 4,500 -660 Descending Jacksonville Center
06:39PM 30.6553 -81.9072 139° Southeast 234 269 4,200 -1,140 Descending Jacksonville Center
06:40PM 30.6236 -81.8786 142° Southeast 256 295 3,400 -840 Descending Jacksonville Center
06:40PM 30.6047 -81.8547 133° Southeast 244 281 3,400 -600 Level Jacksonville Center
06:41PM 30.5814 -81.8283 136° Southeast 237 273 2,800 -1,080 Descending Jacksonville Center
06:41PM 30.5625 -81.7997 127° Southeast 208 239 2,200 -1,140 Descending Jacksonville Center
06:42PM 30.5350 -81.7614 130° Southeast 172 198 1,300 -900 Descending Jacksonville Center
06:43PM 30.5097 -81.7281 131° Southeast 125 144 600 -720 Descending Jacksonville Center
06:45PM 30.4941 -81.6879 135° Southeast  Level Estimated
06:52PM 30.4941 -81.6879 311° West  Level Estimated